createdAt,value
2022-07-26T00:00:13.235Z,6.70
2022-07-26T00:03:00.264Z,6.30
2022-07-26T00:05:27.437Z,6.67
2022-07-26T00:08:10.778Z,6.93
2022-07-26T00:10:41.415Z,6.37
2022-07-26T00:13:08.649Z,6.83
2022-07-26T00:15:36.413Z,7.13
2022-07-26T00:18:04.431Z,7.23
2022-07-26T00:20:31.403Z,6.77
2022-07-26T00:22:59.074Z,7.10
2022-07-26T00:25:26.240Z,7.10
2022-07-26T00:27:53.277Z,6.83
2022-07-26T00:30:20.328Z,6.93
2022-07-26T00:32:47.583Z,6.73
2022-07-26T00:35:14.688Z,6.63
2022-07-26T00:37:42.123Z,7.57
2022-07-26T00:40:10.081Z,6.47
2022-07-26T00:42:37.411Z,6.77
2022-07-26T00:45:06.442Z,7.00
2022-07-26T00:47:33.654Z,6.77
2022-07-26T00:50:00.937Z,7.00
2022-07-26T00:52:28.274Z,7.03
2022-07-26T00:54:56.182Z,6.30
2022-07-26T00:57:23.583Z,6.53
2022-07-26T00:59:50.695Z,6.87
2022-07-26T01:02:18.679Z,7.10
2022-07-26T01:04:45.833Z,7.30
2022-07-26T01:07:15.438Z,6.57
2022-07-26T01:09:43.506Z,6.50
2022-07-26T01:12:11.090Z,6.90
2022-07-26T01:14:38.187Z,6.47
2022-07-26T01:17:05.461Z,6.90
2022-07-26T01:19:32.450Z,7.00
2022-07-26T01:21:59.466Z,6.80
2022-07-26T01:24:26.641Z,6.80
2022-07-26T01:26:55.589Z,6.40
2022-07-26T01:29:23.911Z,7.33
2022-07-26T01:32:04.084Z,7.50
2022-07-26T01:34:31.264Z,7.07
2022-07-26T01:36:58.539Z,7.53
2022-07-26T01:39:25.645Z,6.43
2022-07-26T01:41:53.560Z,6.57
2022-07-26T01:44:20.466Z,6.93
2022-07-26T01:46:47.672Z,7.43
2022-07-26T01:49:15.014Z,7.50
2022-07-26T01:51:41.997Z,6.47
2022-07-26T01:54:09.947Z,6.53
2022-07-26T01:56:37.196Z,7.60
2022-07-26T01:59:04.806Z,6.63
2022-07-26T02:01:38.942Z,7.13
2022-07-26T02:04:29.537Z,6.70
2022-07-26T02:06:56.702Z,6.97
2022-07-26T02:09:24.050Z,6.67
2022-07-26T02:11:53.491Z,7.00
2022-07-26T02:14:26.111Z,7.00
2022-07-26T02:16:59.922Z,7.67
2022-07-26T02:19:31.447Z,7.70
2022-07-26T02:21:59.177Z,7.40
2022-07-26T02:24:29.878Z,7.23
2022-07-26T02:26:58.692Z,7.67
2022-07-26T02:29:26.413Z,7.57
2022-07-26T02:31:54.008Z,7.37
2022-07-26T02:34:21.144Z,8.10
2022-07-26T02:36:48.115Z,7.13
2022-07-26T02:39:15.207Z,6.90
2022-07-26T02:41:42.438Z,7.83
2022-07-26T02:44:10.435Z,7.63
2022-07-26T02:46:38.185Z,7.20
2022-07-26T02:49:05.698Z,7.30
2022-07-26T02:51:32.685Z,7.50
2022-07-26T02:53:59.581Z,7.33
2022-07-26T02:56:26.741Z,7.30
2022-07-26T02:58:53.676Z,7.17
2022-07-26T03:01:20.653Z,7.97
2022-07-26T03:03:50.910Z,6.87
2022-07-26T03:06:18.948Z,7.70
2022-07-26T03:08:46.222Z,8.23
2022-07-26T03:11:13.293Z,7.80
2022-07-26T03:13:40.300Z,8.10
2022-07-26T03:16:08.271Z,7.70
2022-07-26T03:18:35.441Z,7.97
2022-07-26T03:21:02.904Z,7.60
2022-07-26T03:23:33.296Z,7.33
2022-07-26T03:26:02.066Z,7.80
2022-07-26T03:28:33.265Z,7.93
2022-07-26T03:31:00.872Z,8.10
2022-07-26T03:33:28.994Z,7.83
2022-07-26T03:35:56.359Z,7.60
2022-07-26T03:38:23.446Z,7.10
2022-07-26T03:40:50.653Z,7.60
2022-07-26T03:43:22.978Z,7.13
2022-07-26T03:45:50.796Z,7.63
2022-07-26T03:48:17.984Z,7.93
2022-07-26T03:50:44.945Z,6.83
2022-07-26T03:53:11.988Z,7.77
2022-07-26T03:56:17.524Z,7.50
2022-07-26T03:58:44.445Z,7.20
2022-07-26T04:01:11.616Z,7.33
2022-07-26T04:03:40.031Z,7.10
2022-07-26T04:06:11.471Z,6.77
2022-07-26T04:08:38.691Z,7.27
2022-07-26T04:11:05.717Z,6.80
2022-07-26T04:13:33.106Z,7.13
2022-07-26T04:16:00.749Z,7.00
2022-07-26T04:18:27.652Z,6.90
2022-07-26T04:20:54.641Z,6.77
2022-07-26T04:23:21.886Z,6.40
2022-07-26T04:25:48.824Z,6.60
2022-07-26T04:28:15.734Z,6.83
2022-07-26T04:30:43.660Z,6.87
2022-07-26T04:33:10.634Z,7.27
2022-07-26T04:35:37.845Z,6.17
2022-07-26T04:38:05.233Z,6.37
2022-07-26T04:40:34.883Z,6.13
2022-07-26T04:43:08.611Z,6.90
2022-07-26T04:45:37.895Z,6.27
2022-07-26T04:48:05.362Z,6.33
2022-07-26T04:50:32.534Z,6.03
2022-07-26T04:52:59.415Z,6.60
2022-07-26T04:55:26.341Z,5.70
2022-07-26T04:57:53.442Z,6.33
2022-07-26T05:00:24.272Z,6.33
2022-07-26T05:02:55.681Z,5.90
2022-07-26T05:05:24.784Z,6.27
2022-07-26T05:07:53.828Z,6.90
2022-07-26T05:10:23.402Z,5.93
2022-07-26T05:12:50.665Z,5.87
2022-07-26T05:15:17.578Z,6.47
2022-07-26T05:17:45.186Z,6.30
2022-07-26T05:20:15.222Z,6.13
2022-07-26T05:22:42.663Z,6.33
2022-07-26T05:25:10.563Z,6.00
2022-07-26T05:27:38.928Z,6.13
2022-07-26T05:30:06.338Z,5.90
2022-07-26T05:32:33.310Z,6.93
2022-07-26T05:35:00.431Z,7.30
2022-07-26T05:37:27.359Z,5.93
2022-07-26T05:39:54.294Z,6.33
2022-07-26T05:42:21.354Z,6.30
2022-07-26T05:44:48.375Z,5.70
2022-07-26T05:47:16.554Z,6.20
2022-07-26T05:49:43.657Z,6.00
2022-07-26T05:52:10.709Z,6.50
2022-07-26T05:54:37.934Z,5.20
2022-07-26T05:57:05.307Z,6.30
2022-07-26T05:59:32.809Z,5.90
2022-07-26T06:01:59.986Z,5.80
2022-07-26T06:04:27.782Z,5.40
2022-07-26T06:06:55.309Z,6.40
2022-07-26T06:09:24.273Z,5.33
2022-07-26T06:11:52.077Z,5.80
2022-07-26T06:14:20.080Z,5.57
2022-07-26T06:16:47.822Z,5.10
2022-07-26T06:19:15.699Z,5.20
2022-07-26T06:21:42.850Z,5.50
2022-07-26T06:24:10.458Z,5.30
2022-07-26T06:26:37.897Z,4.60
2022-07-26T06:29:05.217Z,4.57
2022-07-26T06:31:32.300Z,4.93
2022-07-26T06:33:59.487Z,4.32
2022-07-26T06:36:30.541Z,4.57
2022-07-26T06:38:59.086Z,4.43
2022-07-26T06:41:26.287Z,4.28
2022-07-26T06:43:53.281Z,5.50
2022-07-26T06:46:21.434Z,4.50
2022-07-26T06:48:52.491Z,5.00
2022-07-26T06:51:20.990Z,4.30
2022-07-26T06:53:48.330Z,4.05
2022-07-26T06:56:17.825Z,3.92
2022-07-26T06:58:44.879Z,4.25
2022-07-26T07:01:11.891Z,3.78
2022-07-26T07:03:39.131Z,4.10
2022-07-26T07:06:26.509Z,4.15
2022-07-26T07:09:08.935Z,4.03
2022-07-26T07:11:51.836Z,4.05
2022-07-26T07:14:25.818Z,3.97
2022-07-26T07:16:52.813Z,3.60
2022-07-26T07:19:20.092Z,4.40
2022-07-26T07:21:47.176Z,3.92
2022-07-26T07:24:14.320Z,4.25
2022-07-26T07:26:41.768Z,3.63
2022-07-26T07:29:14.618Z,4.03
2022-07-26T07:31:48.563Z,3.88
2022-07-26T07:34:23.981Z,3.92
2022-07-26T07:36:51.709Z,4.03
2022-07-26T07:39:19.246Z,3.80
2022-07-26T07:41:47.465Z,32.08
2022-07-26T07:44:14.978Z,4.55
2022-07-26T07:46:42.362Z,7.72
2022-07-26T07:49:11.104Z,4.22
2022-07-26T07:51:38.489Z,3.50
2022-07-26T07:54:06.300Z,3.90
2022-07-26T07:56:34.439Z,3.92
2022-07-26T07:59:01.618Z,3.95
2022-07-26T08:01:40.647Z,4.30
2022-07-26T08:04:09.045Z,4.10
2022-07-26T08:06:37.545Z,3.80
2022-07-26T08:09:08.537Z,3.80
2022-07-26T08:11:36.461Z,4.30
2022-07-26T08:14:09.083Z,3.70
2022-07-26T08:16:36.617Z,4.10
2022-07-26T08:19:03.738Z,3.92
2022-07-26T08:21:31.001Z,3.75
2022-07-26T08:23:58.369Z,4.05
2022-07-26T08:26:25.532Z,3.65
2022-07-26T08:28:59.512Z,4.13
2022-07-26T08:31:37.434Z,7.10
2022-07-26T08:34:04.614Z,4.07
2022-07-26T08:36:32.895Z,4.05
2022-07-26T08:39:01.282Z,3.90
2022-07-26T08:41:28.650Z,3.97
2022-07-26T08:44:04.067Z,4.20
2022-07-26T08:46:34.152Z,3.83
2022-07-26T08:49:01.109Z,4.45
2022-07-26T08:51:28.149Z,4.15
2022-07-26T08:54:04.921Z,3.97
2022-07-26T08:56:35.685Z,4.20
2022-07-26T08:59:19.143Z,4.10
2022-07-26T09:01:57.815Z,4.40
2022-07-26T09:04:33.860Z,4.05
2022-07-26T09:07:05.098Z,4.35
2022-07-26T09:09:34.315Z,4.15
2022-07-26T09:12:16.834Z,4.63
2022-07-26T09:14:46.748Z,4.32
2022-07-26T09:17:16.086Z,3.70
2022-07-26T09:19:43.355Z,4.18
2022-07-26T09:22:13.319Z,3.88
2022-07-26T09:24:46.450Z,4.18
2022-07-26T09:27:17.299Z,4.07
2022-07-26T09:29:51.339Z,4.07
2022-07-26T09:32:20.309Z,4.50
2022-07-26T09:34:54.364Z,4.10
2022-07-26T09:37:39.261Z,4.57
2022-07-26T09:40:09.173Z,3.97
2022-07-26T09:42:36.338Z,4.60
2022-07-26T09:45:14.585Z,3.92
2022-07-26T09:47:41.845Z,4.22
2022-07-26T09:50:17.866Z,4.43
2022-07-26T09:53:00.679Z,4.80
2022-07-26T09:55:36.373Z,5.00
2022-07-26T09:58:06.986Z,5.32
2022-07-26T10:00:34.311Z,5.00
2022-07-26T10:03:01.678Z,4.78
2022-07-26T10:05:29.528Z,5.00
2022-07-26T10:07:59.164Z,4.28
2022-07-26T10:10:34.886Z,5.00
2022-07-26T10:13:03.683Z,4.25
2022-07-26T10:15:43.646Z,4.97
2022-07-26T10:18:39.289Z,5.65
2022-07-26T10:21:25.127Z,12.80
2022-07-26T10:23:59.402Z,6.68
2022-07-26T10:26:32.087Z,5.07
2022-07-26T10:29:17.693Z,4.65
2022-07-26T10:31:46.126Z,5.03
2022-07-26T10:34:39.469Z,4.57
2022-07-26T10:37:08.855Z,4.68
2022-07-26T10:39:37.242Z,5.00
2022-07-26T10:42:09.675Z,4.50
2022-07-26T10:44:41.306Z,4.68
2022-07-26T10:47:08.226Z,4.72
2022-07-26T10:49:41.246Z,5.15
2022-07-26T10:52:21.867Z,5.10
2022-07-26T10:55:00.894Z,4.70
2022-07-26T10:57:33.020Z,4.85
2022-07-26T11:00:01.218Z,11.13
2022-07-26T11:02:32.646Z,6.25
2022-07-26T11:05:05.605Z,6.45
2022-07-26T11:07:32.753Z,5.40
2022-07-26T11:10:01.656Z,5.47
2022-07-26T11:12:28.589Z,4.80
2022-07-26T11:14:55.700Z,4.90
2022-07-26T11:17:31.786Z,4.85
2022-07-26T11:19:59.114Z,4.35
2022-07-26T11:22:33.253Z,5.18
2022-07-26T11:25:00.548Z,5.07
2022-07-26T11:27:27.523Z,4.93
2022-07-26T11:29:54.454Z,5.30
2022-07-26T11:32:25.112Z,5.25
2022-07-26T11:35:05.067Z,5.72
2022-07-26T11:37:32.325Z,5.00
2022-07-26T11:39:59.293Z,5.55
2022-07-26T11:42:26.278Z,5.03
2022-07-26T11:44:53.987Z,5.30
2022-07-26T11:47:25.276Z,5.75
2022-07-26T11:50:12.437Z,5.35
2022-07-26T11:52:40.115Z,5.93
2022-07-26T11:55:07.607Z,4.85
2022-07-26T11:57:34.611Z,5.20
2022-07-26T12:00:02.025Z,4.97
2022-07-26T12:02:30.668Z,5.30
2022-07-26T12:05:23.224Z,8.70
2022-07-26T12:07:59.555Z,5.40
2022-07-26T12:10:27.721Z,5.13
2022-07-26T12:13:14.895Z,4.90
2022-07-26T12:15:59.968Z,5.20
2022-07-26T12:18:31.433Z,5.47
2022-07-26T12:21:04.163Z,5.03
2022-07-26T12:23:49.537Z,5.88
2022-07-26T12:26:26.219Z,5.90
2022-07-26T12:28:54.144Z,6.30
2022-07-26T12:31:28.253Z,12.40
2022-07-26T12:33:56.063Z,7.93
2022-07-26T12:36:28.222Z,16.17
2022-07-26T12:38:58.359Z,7.00
2022-07-26T12:41:52.413Z,7.20
2022-07-26T12:44:22.851Z,6.83
2022-07-26T12:46:49.921Z,6.37
2022-07-26T12:49:17.782Z,6.57
2022-07-26T12:51:44.920Z,7.10
2022-07-26T12:54:12.233Z,7.20
2022-07-26T12:56:39.457Z,7.30
2022-07-26T12:59:06.612Z,7.97
2022-07-26T13:01:33.738Z,7.50
2022-07-26T13:04:01.101Z,7.40
2022-07-26T13:06:28.957Z,7.07
2022-07-26T13:08:56.562Z,8.27
2022-07-26T13:11:24.053Z,7.70
2022-07-26T13:13:51.207Z,7.83
2022-07-26T13:16:18.153Z,8.37
2022-07-26T13:18:46.353Z,9.30
2022-07-26T13:21:13.574Z,9.87
2022-07-26T13:23:40.635Z,8.53
2022-07-26T13:26:09.326Z,9.37
2022-07-26T13:28:37.078Z,9.40
2022-07-26T13:31:04.187Z,10.00
2022-07-26T13:33:32.637Z,10.10
2022-07-26T13:35:59.797Z,9.43
2022-07-26T13:38:46.707Z,10.20
2022-07-26T13:41:29.732Z,11.43
2022-07-26T13:43:58.390Z,12.50
2022-07-26T13:46:33.518Z,12.13
2022-07-26T13:49:02.976Z,12.93
2022-07-26T13:51:54.771Z,13.57
2022-07-26T13:54:23.806Z,13.73
2022-07-26T13:56:51.314Z,13.03
2022-07-26T13:59:18.268Z,13.40
2022-07-26T14:01:46.222Z,13.40
2022-07-26T14:04:14.115Z,12.97
2022-07-26T14:06:41.677Z,12.63
2022-07-26T14:09:12.650Z,13.10
2022-07-26T14:11:39.901Z,12.77
2022-07-26T14:14:07.580Z,12.90
2022-07-26T14:16:35.147Z,12.60
2022-07-26T14:19:03.008Z,10.87
2022-07-26T14:21:43.630Z,10.43
2022-07-26T14:24:21.011Z,10.83
2022-07-26T14:26:48.119Z,11.43
2022-07-26T14:29:15.210Z,10.13
2022-07-26T14:31:42.359Z,9.20
2022-07-26T14:34:09.731Z,8.47
2022-07-26T14:36:36.912Z,9.03
2022-07-26T14:39:05.020Z,8.77
2022-07-26T14:41:32.075Z,8.27
2022-07-26T14:44:01.266Z,8.47
2022-07-26T14:46:28.756Z,8.10
2022-07-26T14:48:55.811Z,7.77
2022-07-26T14:51:22.871Z,8.33
2022-07-26T14:53:50.978Z,7.40
2022-07-26T14:56:17.891Z,8.07
2022-07-26T14:58:44.828Z,7.60
2022-07-26T15:01:12.058Z,7.67
2022-07-26T15:03:39.198Z,8.60
2022-07-26T15:06:06.187Z,7.53
2022-07-26T15:08:33.337Z,7.60
2022-07-26T15:11:00.428Z,8.07
2022-07-26T15:13:27.489Z,7.50
2022-07-26T15:15:54.630Z,7.90
2022-07-26T15:18:21.579Z,7.30
2022-07-26T15:20:51.319Z,8.03
2022-07-26T15:23:18.465Z,7.87
2022-07-26T15:25:46.173Z,6.70
2022-07-26T15:28:13.085Z,6.50
2022-07-26T15:30:40.808Z,6.07
2022-07-26T15:33:12.826Z,5.93
2022-07-26T15:35:40.620Z,6.17
2022-07-26T15:38:07.975Z,5.80
2022-07-26T15:40:35.220Z,5.13
2022-07-26T15:43:02.262Z,4.87
2022-07-26T15:45:30.094Z,4.73
2022-07-26T15:48:13.467Z,3.73
2022-07-26T15:50:43.600Z,3.67
2022-07-26T15:53:10.793Z,3.83
2022-07-26T15:55:37.714Z,3.10
2022-07-26T15:58:05.036Z,3.03
2022-07-26T16:00:32.170Z,2.50
2022-07-26T16:02:59.102Z,3.00
2022-07-26T16:05:26.236Z,2.93
2022-07-26T16:07:53.332Z,3.13
2022-07-26T16:10:20.302Z,2.87
2022-07-26T16:12:48.009Z,3.37
2022-07-26T16:15:15.047Z,3.10
2022-07-26T16:17:42.007Z,3.27
2022-07-26T16:20:09.984Z,3.40
2022-07-26T16:22:41.046Z,3.53
2022-07-26T16:25:09.354Z,3.37
2022-07-26T16:27:36.507Z,3.30
2022-07-26T16:30:04.422Z,2.97
2022-07-26T16:32:31.370Z,3.30
2022-07-26T16:34:58.444Z,3.47
2022-07-26T16:37:25.433Z,3.23
2022-07-26T16:39:53.365Z,3.47
2022-07-26T16:42:20.445Z,3.07
2022-07-26T16:44:47.471Z,3.07
2022-07-26T16:47:14.496Z,3.13
2022-07-26T16:49:41.799Z,3.53
2022-07-26T16:52:08.944Z,3.63
2022-07-26T16:54:35.889Z,3.60
2022-07-26T16:57:03.159Z,3.77
2022-07-26T16:59:30.093Z,4.20
2022-07-26T17:02:01.588Z,4.20
2022-07-26T17:04:30.183Z,4.40
2022-07-26T17:07:23.431Z,4.63
2022-07-26T17:09:44.755Z,4.47
2022-07-26T17:12:11.761Z,4.70
2022-07-26T17:14:38.674Z,4.70
2022-07-26T17:17:05.794Z,4.80
2022-07-26T17:19:32.699Z,4.07
2022-07-26T17:21:59.594Z,4.53
2022-07-26T17:24:26.724Z,4.50
2022-07-26T17:26:54.427Z,5.27
2022-07-26T17:29:21.431Z,5.37
2022-07-26T17:31:50.066Z,5.13
2022-07-26T17:34:17.175Z,5.43
2022-07-26T17:36:46.462Z,6.60
2022-07-26T17:39:14.867Z,6.73
2022-07-26T17:41:45.490Z,6.33
2022-07-26T17:44:15.068Z,6.40
2022-07-26T17:46:42.365Z,7.43
2022-07-26T17:49:09.733Z,7.03
2022-07-26T17:51:37.630Z,7.73
2022-07-26T17:54:04.729Z,7.17
2022-07-26T17:56:31.741Z,7.43
2022-07-26T17:58:58.877Z,8.20
2022-07-26T18:01:26.009Z,7.57
2022-07-26T18:03:53.091Z,7.80
2022-07-26T18:06:20.432Z,7.90
2022-07-26T18:08:48.179Z,7.67
2022-07-26T18:11:15.127Z,7.83
2022-07-26T18:13:42.415Z,7.97
2022-07-26T18:16:09.379Z,8.23
2022-07-26T18:18:36.302Z,7.80
2022-07-26T18:21:03.501Z,8.87
2022-07-26T18:23:30.458Z,8.43
2022-07-26T18:25:58.132Z,7.27
2022-07-26T18:28:25.306Z,8.83
2022-07-26T18:30:52.357Z,6.90
2022-07-26T18:33:19.301Z,7.93
2022-07-26T18:35:46.432Z,7.27
2022-07-26T18:38:13.540Z,7.53
2022-07-26T18:40:40.790Z,6.77
2022-07-26T18:43:07.957Z,6.90
2022-07-26T18:45:34.998Z,7.20
2022-07-26T18:48:01.935Z,7.17
2022-07-26T18:50:30.970Z,7.23
2022-07-26T18:52:59.355Z,6.67
2022-07-26T18:55:26.460Z,6.70
2022-07-26T18:57:53.714Z,6.40
2022-07-26T19:00:22.688Z,6.73
2022-07-26T19:02:51.964Z,6.70
2022-07-26T19:05:22.829Z,6.83
2022-07-26T19:07:51.315Z,6.60
2022-07-26T19:10:20.048Z,5.90
2022-07-26T19:12:48.494Z,6.20
2022-07-26T19:15:16.406Z,5.80
2022-07-26T19:17:43.459Z,5.97
2022-07-26T19:20:11.161Z,6.90
2022-07-26T19:22:38.777Z,6.83
2022-07-26T19:25:11.040Z,6.00
2022-07-26T19:27:39.188Z,5.93
2022-07-26T19:30:08.218Z,5.80
2022-07-26T19:32:35.311Z,6.30
2022-07-26T19:35:03.909Z,6.60
2022-07-26T19:37:30.831Z,6.50
2022-07-26T19:40:00.897Z,6.80
2022-07-26T19:42:31.769Z,6.90
2022-07-26T19:44:59.305Z,6.03
2022-07-26T19:47:26.982Z,6.13
2022-07-26T19:49:54.269Z,7.23
2022-07-26T19:52:21.182Z,6.80
2022-07-26T19:54:48.059Z,6.40
2022-07-26T19:57:19.501Z,6.37
2022-07-26T19:59:47.505Z,6.20
2022-07-26T20:02:14.757Z,6.07
2022-07-26T20:04:45.887Z,6.67
2022-07-26T20:07:19.186Z,6.77
2022-07-26T20:09:50.561Z,6.60
2022-07-26T20:12:19.179Z,7.20
2022-07-26T20:14:46.463Z,7.20
2022-07-26T20:17:15.001Z,7.80
2022-07-26T20:19:41.998Z,7.20
2022-07-26T20:22:09.019Z,6.90
2022-07-26T20:24:38.149Z,7.13
2022-07-26T20:27:07.883Z,8.30
2022-07-26T20:29:35.027Z,7.23
2022-07-26T20:32:02.511Z,7.27
2022-07-26T20:34:30.029Z,7.10
2022-07-26T20:36:57.029Z,7.50
2022-07-26T20:39:26.173Z,7.33
2022-07-26T20:41:53.395Z,7.23
2022-07-26T20:44:23.992Z,7.40
2022-07-26T20:46:55.269Z,7.60
2022-07-26T20:49:22.235Z,7.73
2022-07-26T20:51:49.167Z,7.97
2022-07-26T20:54:16.385Z,7.30
2022-07-26T20:56:43.354Z,6.77
2022-07-26T20:59:10.586Z,8.00
2022-07-26T21:01:38.043Z,7.97
2022-07-26T21:04:05.031Z,8.03
2022-07-26T21:06:33.267Z,7.70
2022-07-26T21:09:00.989Z,8.13
2022-07-26T21:11:36.115Z,7.17
2022-07-26T21:14:03.233Z,7.00
2022-07-26T21:16:30.258Z,8.33
2022-07-26T21:18:57.376Z,7.93
2022-07-26T21:21:26.070Z,8.90
2022-07-26T21:23:52.942Z,8.07
2022-07-26T21:26:19.969Z,8.43
2022-07-26T21:28:47.088Z,9.33
2022-07-26T21:31:14.053Z,8.93
2022-07-26T21:33:41.197Z,9.07
2022-07-26T21:36:08.368Z,8.67
2022-07-26T21:38:35.302Z,9.47
2022-07-26T21:41:02.215Z,8.63
2022-07-26T21:43:29.406Z,8.97
2022-07-26T21:45:56.460Z,9.50
2022-07-26T21:48:23.796Z,8.93
2022-07-26T21:50:50.986Z,8.97
2022-07-26T21:53:17.897Z,9.10
2022-07-26T21:55:44.815Z,8.60
2022-07-26T21:58:11.940Z,8.80
2022-07-26T22:00:39.552Z,7.93
2022-07-26T22:03:06.974Z,9.07
2022-07-26T22:05:42.373Z,8.97
2022-07-26T22:08:12.866Z,9.07
2022-07-26T22:10:44.736Z,9.13
2022-07-26T22:13:12.875Z,8.97
2022-07-26T22:15:40.363Z,8.80
2022-07-26T22:18:09.712Z,9.70
2022-07-26T22:20:37.454Z,9.40
2022-07-26T22:23:10.315Z,8.90
2022-07-26T22:25:38.242Z,9.20
2022-07-26T22:28:06.708Z,9.20
2022-07-26T22:30:33.828Z,9.30
2022-07-26T22:33:03.067Z,9.37
2022-07-26T22:35:33.946Z,9.07
2022-07-26T22:38:07.285Z,9.50
2022-07-26T22:40:34.783Z,9.23
2022-07-26T22:43:02.049Z,10.37
2022-07-26T22:45:30.401Z,9.80
2022-07-26T22:47:58.027Z,9.53
2022-07-26T22:50:25.562Z,9.23
2022-07-26T22:52:53.197Z,10.10
2022-07-26T22:55:20.881Z,10.10
2022-07-26T22:57:47.995Z,9.27
2022-07-26T23:00:17.631Z,9.80
2022-07-26T23:02:44.912Z,9.33
2022-07-26T23:05:11.918Z,10.00
2022-07-26T23:07:39.562Z,10.37
2022-07-26T23:10:09.757Z,9.73
2022-07-26T23:12:37.398Z,9.20
2022-07-26T23:15:05.960Z,9.80
2022-07-26T23:17:32.929Z,9.07
2022-07-26T23:19:59.851Z,8.77
2022-07-26T23:22:26.959Z,10.03
2022-07-26T23:24:53.870Z,9.30
2022-07-26T23:27:20.952Z,9.70
2022-07-26T23:29:49.090Z,9.60
2022-07-26T23:32:16.882Z,9.03
2022-07-26T23:34:44.095Z,10.17
2022-07-26T23:37:11.493Z,9.23
2022-07-26T23:39:38.437Z,10.07
2022-07-26T23:42:07.116Z,10.83
2022-07-26T23:44:34.431Z,9.60
2022-07-26T23:47:01.734Z,9.27
2022-07-26T23:49:29.079Z,10.30
2022-07-26T23:51:56.221Z,8.70
2022-07-26T23:54:23.261Z,9.93
2022-07-26T23:56:50.213Z,8.73
2022-07-26T23:59:17.490Z,9.83
